createdAt,value
2016-06-04T00:00:58.310Z,0
2016-06-04T00:01:58.313Z,0
2016-06-04T00:02:58.299Z,0
2016-06-04T00:03:58.334Z,0
2016-06-04T00:04:58.321Z,0
2016-06-04T00:05:58.371Z,0
2016-06-04T00:06:58.311Z,0
2016-06-04T00:07:58.344Z,0
2016-06-04T00:08:58.347Z,0
2016-06-04T00:10:11.038Z,0
2016-06-04T00:11:17.384Z,0
2016-06-04T00:11:58.276Z,0
2016-06-04T00:12:58.358Z,0
2016-06-04T00:13:58.345Z,0
2016-06-04T00:14:58.363Z,0
2016-06-04T00:15:58.365Z,0
2016-06-04T00:16:58.353Z,0
2016-06-04T00:17:58.356Z,0
2016-06-04T00:18:58.358Z,0
2016-06-04T00:19:58.362Z,0
2016-06-04T00:20:58.332Z,0
2016-06-04T00:21:58.367Z,0
2016-06-04T00:22:58.369Z,0
2016-06-04T00:23:58.387Z,0
2016-06-04T00:24:58.406Z,0
2016-06-04T00:25:58.456Z,0
2016-06-04T00:27:17.567Z,0
2016-06-04T00:27:58.397Z,0
2016-06-04T00:28:58.229Z,0
2016-06-04T00:29:58.419Z,0
2016-06-04T00:30:58.406Z,0
2016-06-04T00:31:58.408Z,0
2016-06-04T00:32:58.474Z,0
2016-06-04T00:33:58.367Z,0
2016-06-04T00:34:58.402Z,0
2016-06-04T00:35:58.404Z,0
2016-06-04T00:36:58.407Z,0
2016-06-04T00:37:58.425Z,0
2016-06-04T00:38:58.413Z,0
2016-06-04T00:39:58.415Z,0
2016-06-04T00:40:59.121Z,0
2016-06-04T00:41:58.374Z,0
2016-06-04T00:42:58.563Z,0
2016-06-04T00:43:58.426Z,0
2016-06-04T00:44:58.553Z,0
2016-06-04T00:45:58.432Z,0
2016-06-04T00:46:58.465Z,0
2016-06-04T00:47:58.452Z,0
2016-06-04T00:48:58.470Z,0
2016-06-04T00:49:58.442Z,0
2016-06-04T00:50:58.460Z,0
2016-06-04T00:51:58.415Z,0
2016-06-04T00:52:58.451Z,0
2016-06-04T00:53:58.437Z,0
2016-06-04T00:54:58.423Z,0
2016-06-04T00:55:58.551Z,0
2016-06-04T00:56:58.508Z,0
2016-06-04T00:58:17.682Z,0
2016-06-04T00:58:58.478Z,0
2016-06-04T00:59:58.483Z,0
2016-06-04T01:00:58.534Z,0
2016-06-04T01:01:58.602Z,0
2016-06-04T01:02:58.638Z,0
2016-06-04T01:03:58.494Z,0
2016-06-04T01:04:58.666Z,0
2016-06-04T01:05:58.540Z,0
2016-06-04T01:06:58.695Z,0
2016-06-04T01:07:58.710Z,0
2016-06-04T01:08:58.721Z,0
2016-06-04T01:09:58.759Z,0
2016-06-04T01:10:59.266Z,0
2016-06-04T01:11:59.414Z,0
2016-06-04T01:12:58.764Z,0
2016-06-04T01:13:58.770Z,0
2016-06-04T01:15:17.962Z,0
2016-06-04T01:15:58.763Z,0
2016-06-04T01:16:58.860Z,0
2016-06-04T01:17:58.787Z,0
2016-06-04T01:18:58.790Z,0
2016-06-04T01:19:58.856Z,0
2016-06-04T01:20:58.782Z,0
2016-06-04T01:22:18.019Z,0
2016-06-04T01:22:58.803Z,0
2016-06-04T01:23:58.775Z,0
2016-06-04T01:24:58.778Z,0
2016-06-04T01:25:58.812Z,0
2016-06-04T01:26:59.862Z,0
2016-06-04T01:27:58.818Z,0
2016-06-04T01:28:58.821Z,0
2016-06-04T01:29:58.809Z,0
2016-06-04T01:30:58.812Z,0
2016-06-04T01:31:58.782Z,0
2016-06-04T01:32:58.817Z,0
2016-06-04T01:33:58.803Z,0
2016-06-04T01:34:58.682Z,0
2016-06-04T01:35:58.809Z,0
2016-06-04T01:36:58.843Z,0
2016-06-04T01:37:58.862Z,0
2016-06-04T01:38:58.848Z,0
2016-06-04T01:39:58.711Z,0
2016-06-04T01:40:58.948Z,0
2016-06-04T01:41:58.903Z,0
2016-06-04T01:42:58.891Z,0
2016-06-04T01:43:58.847Z,0
2016-06-04T01:44:58.833Z,0
2016-06-04T01:45:58.852Z,0
2016-06-04T01:46:58.839Z,0
2016-06-04T01:47:58.889Z,0
2016-06-04T01:48:58.891Z,0
2016-06-04T01:49:58.894Z,0
2016-06-04T01:50:58.896Z,0
2016-06-04T01:51:58.899Z,0
2016-06-04T01:53:18.089Z,0
2016-06-04T01:53:58.888Z,0
2016-06-04T01:54:58.969Z,0
2016-06-04T01:55:59.222Z,0
2016-06-04T01:56:59.194Z,0
2016-06-04T01:57:58.900Z,0
2016-06-04T01:58:58.887Z,0
2016-06-04T01:59:58.889Z,0
2016-06-04T02:00:58.908Z,0
2016-06-04T02:01:58.895Z,0
2016-06-04T02:02:58.912Z,0
2016-06-04T02:03:58.901Z,0
2016-06-04T02:04:58.887Z,0
2016-06-04T02:05:58.952Z,0
2016-06-04T02:06:58.893Z,0
2016-06-04T02:07:58.973Z,0
2016-06-04T02:08:58.897Z,0
2016-06-04T02:09:58.901Z,0
2016-06-04T02:10:59.295Z,0
2016-06-04T02:11:58.952Z,0
2016-06-04T02:12:58.956Z,0
2016-06-04T02:13:58.927Z,0
2016-06-04T02:14:58.961Z,0
2016-06-04T02:15:58.947Z,0
2016-06-04T02:17:18.122Z,0
2016-06-04T02:17:58.781Z,0
2016-06-04T02:18:58.909Z,0
2016-06-04T02:19:58.802Z,0
2016-06-04T02:20:58.961Z,0
2016-06-04T02:21:58.964Z,0
2016-06-04T02:22:58.952Z,0
2016-06-04T02:23:58.970Z,0
2016-06-04T02:24:58.957Z,0
2016-06-04T02:25:59.349Z,0
2016-06-04T02:26:59.212Z,0
2016-06-04T02:28:18.199Z,0
2016-06-04T02:28:58.967Z,0
2016-06-04T02:29:58.954Z,0
2016-06-04T02:30:58.973Z,0
2016-06-04T02:31:59.007Z,0
2016-06-04T02:32:58.978Z,0
2016-06-04T02:33:59.012Z,0
2016-06-04T02:34:58.968Z,0
2016-06-04T02:36:18.174Z,0
2016-06-04T02:36:58.989Z,0
2016-06-04T02:37:59.006Z,0
2016-06-04T02:38:58.979Z,0
2016-06-04T02:39:58.840Z,0
2016-06-04T02:40:59.703Z,0
2016-06-04T02:42:00.675Z,0
2016-06-04T02:42:59.208Z,0
2016-06-04T02:43:59.023Z,0
2016-06-04T02:44:58.886Z,0
2016-06-04T02:45:59.028Z,0
2016-06-04T02:47:18.063Z,0
2016-06-04T02:47:59.033Z,0
2016-06-04T02:48:59.021Z,0
2016-06-04T02:49:59.055Z,0
2016-06-04T02:50:59.011Z,0
2016-06-04T02:51:58.997Z,0
2016-06-04T02:52:59.032Z,0
2016-06-04T02:53:59.082Z,0
2016-06-04T02:54:59.006Z,0
2016-06-04T02:55:59.102Z,0
2016-06-04T02:56:59.621Z,0
2016-06-04T02:57:59.060Z,0
2016-06-04T02:58:59.048Z,0
2016-06-04T02:59:59.066Z,0
2016-06-04T03:00:59.179Z,0
2016-06-04T03:01:59.071Z,0
2016-06-04T03:02:58.934Z,0
2016-06-04T03:04:18.280Z,0
2016-06-04T03:04:59.033Z,0
2016-06-04T03:05:59.067Z,0
2016-06-04T03:06:59.070Z,0
2016-06-04T03:07:59.073Z,0
2016-06-04T03:08:59.075Z,0
2016-06-04T03:09:59.078Z,0
2016-06-04T03:10:59.080Z,0
2016-06-04T03:11:59.411Z,0
2016-06-04T03:12:59.070Z,0
2016-06-04T03:13:59.104Z,0
2016-06-04T03:14:59.091Z,0
2016-06-04T03:15:59.094Z,5
2016-06-04T03:16:59.097Z,5
2016-06-04T03:17:59.083Z,5
2016-06-04T03:18:59.071Z,5
2016-06-04T03:19:59.089Z,5
2016-06-04T03:20:59.122Z,5
2016-06-04T03:21:59.111Z,10
2016-06-04T03:22:59.175Z,10
2016-06-04T03:23:59.100Z,10
2016-06-04T03:24:59.086Z,15
2016-06-04T03:25:58.996Z,15
2016-06-04T03:26:59.514Z,15
2016-06-04T03:27:59.111Z,15
2016-06-04T03:28:59.129Z,15
2016-06-04T03:29:59.100Z,15
2016-06-04T03:31:11.853Z,15
2016-06-04T03:32:11.872Z,15
2016-06-04T03:32:59.139Z,15
2016-06-04T03:33:59.158Z,15
2016-06-04T03:34:59.160Z,15
2016-06-04T03:35:59.132Z,20
2016-06-04T03:36:59.134Z,20
2016-06-04T03:37:59.168Z,20
2016-06-04T03:38:59.187Z,25
2016-06-04T03:39:59.143Z,25
2016-06-04T03:40:59.208Z,25
2016-06-04T03:41:59.148Z,25
2016-06-04T03:42:59.025Z,30
2016-06-04T03:43:59.122Z,30
2016-06-04T03:44:59.156Z,30
2016-06-04T03:45:59.206Z,30
2016-06-04T03:46:59.193Z,35
2016-06-04T03:47:59.164Z,35
2016-06-04T03:48:59.151Z,35
2016-06-04T03:49:59.200Z,35
2016-06-04T03:50:59.156Z,40
2016-06-04T03:51:59.205Z,45
2016-06-04T03:52:59.256Z,40
2016-06-04T03:53:59.243Z,40
2016-06-04T03:54:59.199Z,40
2016-06-04T03:55:59.029Z,40
2016-06-04T03:57:00.219Z,40
2016-06-04T03:57:59.207Z,40
2016-06-04T03:58:59.178Z,40
2016-06-04T03:59:59.212Z,45
2016-06-04T04:00:59.199Z,45
2016-06-04T04:01:59.249Z,45
2016-06-04T04:02:59.299Z,45
2016-06-04T04:03:59.238Z,45
2016-06-04T04:04:59.288Z,45
2016-06-04T04:05:59.229Z,45
2016-06-04T04:06:59.215Z,45
2016-06-04T04:07:59.202Z,45
2016-06-04T04:08:59.079Z,45
2016-06-04T04:09:59.239Z,45
2016-06-04T04:11:19.085Z,45
2016-06-04T04:11:58.963Z,45
2016-06-04T04:12:59.262Z,50
2016-06-04T04:13:59.265Z,50
2016-06-04T04:14:59.253Z,50
2016-06-04T04:15:59.223Z,50
2016-06-04T04:16:59.242Z,50
2016-06-04T04:17:59.245Z,50
2016-06-04T04:18:59.278Z,50
2016-06-04T04:19:59.234Z,50
2016-06-04T04:20:59.284Z,50
2016-06-04T04:21:59.272Z,55
2016-06-04T04:22:59.305Z,55
2016-06-04T04:23:59.277Z,55
2016-06-04T04:24:59.280Z,55
2016-06-04T04:26:00.595Z,55
2016-06-04T04:26:59.222Z,55
2016-06-04T04:27:59.319Z,55
2016-06-04T04:28:59.291Z,60
2016-06-04T04:29:59.293Z,60
2016-06-04T04:30:59.279Z,65
2016-06-04T04:31:59.220Z,70
2016-06-04T04:32:59.285Z,75
2016-06-04T04:33:59.288Z,75
2016-06-04T04:34:59.274Z,80
2016-06-04T04:35:59.324Z,80
2016-06-04T04:36:59.312Z,80
2016-06-04T04:37:59.314Z,75
2016-06-04T04:38:59.318Z,75
2016-06-04T04:40:12.007Z,70
2016-06-04T04:40:59.557Z,65
2016-06-04T04:41:59.684Z,60
2016-06-04T04:42:59.453Z,60
2016-06-04T04:43:59.346Z,60
2016-06-04T04:44:59.302Z,60
2016-06-04T04:45:59.320Z,55
2016-06-04T04:46:59.354Z,55
2016-06-04T04:47:59.309Z,55
2016-06-04T04:48:59.312Z,55
2016-06-04T04:49:59.362Z,50
2016-06-04T04:50:59.365Z,50
2016-06-04T04:51:59.352Z,50
2016-06-04T04:52:59.370Z,50
2016-06-04T04:53:59.373Z,45
2016-06-04T04:54:59.361Z,45
2016-06-04T04:55:59.269Z,45
2016-06-04T04:56:59.708Z,45
2016-06-04T04:57:59.384Z,45
2016-06-04T04:58:59.371Z,45
2016-06-04T04:59:59.373Z,45
2016-06-04T05:00:59.360Z,50
2016-06-04T05:01:59.488Z,50
2016-06-04T05:02:59.382Z,50
2016-06-04T05:03:59.353Z,50
2016-06-04T05:05:18.590Z,50
2016-06-04T05:05:59.405Z,50
2016-06-04T05:06:59.393Z,55
2016-06-04T05:07:59.254Z,55
2016-06-04T05:08:59.413Z,55
2016-06-04T05:09:59.416Z,60
2016-06-04T05:10:59.543Z,60
2016-06-04T05:11:59.874Z,60
2016-06-04T05:12:59.424Z,55
2016-06-04T05:13:59.380Z,55
2016-06-04T05:14:59.414Z,55
2016-06-04T05:15:59.400Z,55
2016-06-04T05:16:59.638Z,55
2016-06-04T05:17:59.437Z,55
2016-06-04T05:18:59.425Z,55
2016-06-04T05:19:59.506Z,55
2016-06-04T05:20:59.415Z,55
2016-06-04T05:21:59.433Z,55
2016-06-04T05:22:59.435Z,60
2016-06-04T05:23:59.423Z,60
2016-06-04T05:24:59.456Z,60
2016-06-04T05:25:59.944Z,65
2016-06-04T05:26:59.446Z,70
2016-06-04T05:27:59.464Z,75
2016-06-04T05:28:59.389Z,80
2016-06-04T05:29:59.297Z,85
2016-06-04T05:30:59.441Z,90
2016-06-04T05:31:59.491Z,95
2016-06-04T05:32:59.463Z,95
2016-06-04T05:33:59.480Z,100
2016-06-04T05:34:59.468Z,105
2016-06-04T05:35:59.485Z,110
2016-06-04T05:37:12.208Z,120
2016-06-04T05:38:05.757Z,120
2016-06-04T05:38:59.479Z,125
2016-06-04T05:39:59.497Z,125
2016-06-04T05:40:59.390Z,130
2016-06-04T05:42:01.065Z,130
2016-06-04T05:42:59.536Z,135
2016-06-04T05:43:59.507Z,135
2016-06-04T05:44:59.510Z,135
2016-06-04T05:45:59.340Z,135
2016-06-04T05:46:59.515Z,135
2016-06-04T05:47:59.503Z,130
2016-06-04T05:48:59.521Z,130
2016-06-04T05:49:59.508Z,125
2016-06-04T05:50:59.542Z,130
2016-06-04T05:51:59.529Z,120
2016-06-04T05:53:18.750Z,125
2016-06-04T05:53:59.550Z,115
2016-06-04T05:54:59.522Z,115
2016-06-04T05:55:59.633Z,115
2016-06-04T05:57:00.277Z,115
2016-06-04T05:57:59.373Z,115
2016-06-04T05:58:59.564Z,115
2016-06-04T05:59:59.550Z,115
2016-06-04T06:00:59.553Z,115
2016-06-04T06:01:59.571Z,115
2016-06-04T06:02:59.669Z,115
2016-06-04T06:03:59.561Z,120
2016-06-04T06:04:59.564Z,115
2016-06-04T06:05:59.566Z,115
2016-06-04T06:06:59.585Z,115
2016-06-04T06:07:59.587Z,115
2016-06-04T06:08:59.559Z,115
2016-06-04T06:09:59.577Z,115
2016-06-04T06:11:19.002Z,115
2016-06-04T06:11:59.332Z,120
2016-06-04T06:12:59.570Z,120
2016-06-04T06:13:59.635Z,120
2016-06-04T06:14:59.560Z,120
2016-06-04T06:15:59.671Z,120
2016-06-04T06:16:59.674Z,120
2016-06-04T06:17:59.599Z,115
2016-06-04T06:18:59.586Z,115
2016-06-04T06:19:59.620Z,110
2016-06-04T06:20:59.639Z,110
2016-06-04T06:21:59.609Z,110
2016-06-04T06:23:12.378Z,105
2016-06-04T06:23:59.630Z,105
2016-06-04T06:24:59.617Z,105
2016-06-04T06:25:59.668Z,105
2016-06-04T06:26:59.717Z,105
2016-06-04T06:27:59.657Z,110
2016-06-04T06:28:59.644Z,105
2016-06-04T06:29:59.663Z,105
2016-06-04T06:30:59.696Z,105
2016-06-04T06:31:59.652Z,105
2016-06-04T06:32:59.686Z,105
2016-06-04T06:33:59.674Z,105
2016-06-04T06:34:59.676Z,105
2016-06-04T06:35:59.710Z,105
2016-06-04T06:36:59.728Z,100
2016-06-04T06:37:59.699Z,95
2016-06-04T06:38:59.718Z,90
2016-06-04T06:39:59.690Z,90
2016-06-04T06:40:59.879Z,85
2016-06-04T06:42:00.007Z,85
2016-06-04T06:42:59.604Z,90
2016-06-04T06:43:59.793Z,85
2016-06-04T06:44:59.734Z,90
2016-06-04T06:45:59.831Z,85
2016-06-04T06:46:59.709Z,85
2016-06-04T06:47:59.726Z,85
2016-06-04T06:48:59.714Z,85
2016-06-04T06:50:18.887Z,80
2016-06-04T06:50:59.720Z,80
2016-06-04T06:51:59.737Z,80
2016-06-04T06:52:59.740Z,80
2016-06-04T06:53:59.742Z,80
2016-06-04T06:54:59.776Z,85
2016-06-04T06:55:59.717Z,90
2016-06-04T06:56:59.735Z,95
2016-06-04T06:57:59.894Z,100
2016-06-04T06:58:59.741Z,100
2016-06-04T06:59:59.790Z,105
2016-06-04T07:00:59.747Z,110
2016-06-04T07:01:59.764Z,115
2016-06-04T07:02:59.798Z,120
2016-06-04T07:03:59.800Z,120
2016-06-04T07:04:59.819Z,120
2016-06-04T07:05:59.775Z,125
2016-06-04T07:06:59.778Z,125
2016-06-04T07:07:59.780Z,125
2016-06-04T07:08:59.829Z,130
2016-06-04T07:09:59.770Z,135
2016-06-04T07:10:59.976Z,140
2016-06-04T07:12:00.353Z,145
2016-06-04T07:13:19.043Z,145
2016-06-04T07:13:59.797Z,145
2016-06-04T07:14:59.799Z,150
2016-06-04T07:15:59.801Z,155
2016-06-04T07:16:59.820Z,155
2016-06-04T07:17:59.854Z,155
2016-06-04T07:18:59.654Z,160
2016-06-04T07:19:59.859Z,160
2016-06-04T07:20:59.815Z,165
2016-06-04T07:21:59.865Z,165
2016-06-04T07:22:59.868Z,160
2016-06-04T07:23:59.839Z,160
2016-06-04T07:24:59.856Z,160
2016-06-04T07:26:00.392Z,155
2016-06-04T07:27:00.519Z,155
2016-06-04T07:28:19.084Z,160
2016-06-04T07:28:59.900Z,160
2016-06-04T07:29:59.870Z,160
2016-06-04T07:30:59.873Z,165
2016-06-04T07:31:59.875Z,165
2016-06-04T07:32:59.863Z,165
2016-06-04T07:33:59.850Z,165
2016-06-04T07:34:59.884Z,170
2016-06-04T07:35:59.886Z,175
2016-06-04T07:36:59.889Z,170
2016-06-04T07:37:59.892Z,175
2016-06-04T07:38:59.880Z,170
2016-06-04T07:40:19.116Z,175
2016-06-04T07:41:00.072Z,180
2016-06-04T07:42:00.232Z,180
2016-06-04T07:42:59.906Z,180
2016-06-04T07:43:59.940Z,185
2016-06-04T07:44:59.926Z,185
2016-06-04T07:46:19.117Z,190
2016-06-04T07:46:59.776Z,190
2016-06-04T07:47:59.935Z,195
2016-06-04T07:48:59.937Z,200
2016-06-04T07:49:59.971Z,200
2016-06-04T07:50:59.943Z,200
2016-06-04T07:51:59.945Z,205
2016-06-04T07:52:59.979Z,205
2016-06-04T07:53:59.950Z,210
2016-06-04T07:54:59.985Z,205
2016-06-04T07:56:01.269Z,205
2016-06-04T07:57:00.772Z,205
2016-06-04T07:57:59.978Z,200
2016-06-04T07:58:59.964Z,205
2016-06-04T07:59:59.967Z,200
2016-06-04T08:00:59.970Z,195
2016-06-04T08:02:00.003Z,195
2016-06-04T08:02:59.834Z,190
2016-06-04T08:03:59.994Z,190
2016-06-04T08:04:59.996Z,190
2016-06-04T08:05:59.983Z,190
2016-06-04T08:07:00.033Z,195
2016-06-04T08:08:00.005Z,195
2016-06-04T08:09:00.007Z,200
2016-06-04T08:10:06.275Z,205
2016-06-04T08:11:00.025Z,210
2016-06-04T08:11:59.887Z,215
2016-06-04T08:13:01.893Z,220
2016-06-04T08:14:00.049Z,230
2016-06-04T08:15:00.098Z,235
2016-06-04T08:16:00.039Z,245
2016-06-04T08:17:00.057Z,260
2016-06-04T08:18:00.044Z,265
2016-06-04T08:19:00.078Z,275
2016-06-04T08:20:00.081Z,290
2016-06-04T08:21:00.099Z,305
2016-06-04T08:21:59.961Z,315
2016-06-04T08:23:00.089Z,315
2016-06-04T08:24:00.137Z,325
2016-06-04T08:25:12.847Z,330
2016-06-04T08:26:01.178Z,335
2016-06-04T08:27:00.615Z,355
2016-06-04T08:28:00.103Z,350
2016-06-04T08:29:00.136Z,355
2016-06-04T08:30:00.014Z,355
2016-06-04T08:31:00.125Z,360
2016-06-04T08:32:00.128Z,360
2016-06-04T08:33:00.116Z,360
2016-06-04T08:34:00.118Z,360
2016-06-04T08:35:00.153Z,370
2016-06-04T08:36:00.217Z,365
2016-06-04T08:37:00.188Z,360
2016-06-04T08:38:00.191Z,360
2016-06-04T08:39:00.210Z,360
2016-06-04T08:40:00.180Z,365
2016-06-04T08:41:00.043Z,365
2016-06-04T08:42:00.311Z,370
2016-06-04T08:43:03.723Z,370
2016-06-04T08:44:00.207Z,375
2016-06-04T08:45:00.211Z,375
2016-06-04T08:46:00.213Z,370
2016-06-04T08:47:00.232Z,375
2016-06-04T08:48:00.218Z,365
2016-06-04T08:49:00.252Z,370
2016-06-04T08:50:00.271Z,360
2016-06-04T08:51:00.242Z,365
2016-06-04T08:52:00.260Z,365
2016-06-04T08:53:00.295Z,360
2016-06-04T08:54:00.281Z,365
2016-06-04T08:55:00.284Z,365
2016-06-04T08:56:00.287Z,375
2016-06-04T08:57:00.305Z,375
2016-06-04T08:58:04.623Z,380
2016-06-04T08:59:01.326Z,385
2016-06-04T09:00:00.313Z,395
2016-06-04T09:01:00.378Z,400
2016-06-04T09:02:00.319Z,425
2016-06-04T09:03:12.886Z,445
2016-06-04T09:04:00.370Z,455
2016-06-04T09:05:00.342Z,470
2016-06-04T09:06:00.345Z,485
2016-06-04T09:07:00.364Z,485
2016-06-04T09:08:00.350Z,490
2016-06-04T09:09:00.384Z,510
2016-06-04T09:10:00.387Z,470
2016-06-04T09:11:13.189Z,470
2016-06-04T09:12:00.611Z,445
2016-06-04T09:13:01.567Z,415
2016-06-04T09:14:00.444Z,395
2016-06-04T09:15:00.275Z,385
2016-06-04T09:16:00.449Z,370
2016-06-04T09:17:13.205Z,365
2016-06-04T09:18:00.424Z,355
2016-06-04T09:19:00.473Z,345
2016-06-04T09:20:00.508Z,335
2016-06-04T09:21:00.448Z,325
2016-06-04T09:22:00.498Z,305
2016-06-04T09:23:13.221Z,295
2016-06-04T09:24:00.378Z,285
2016-06-04T09:25:00.349Z,260
2016-06-04T09:26:00.524Z,235
2016-06-04T09:27:00.542Z,210
2016-06-04T09:28:00.545Z,185
2016-06-04T09:29:19.895Z,160
2016-06-04T09:30:00.535Z,150
2016-06-04T09:31:00.553Z,140
2016-06-04T09:32:00.586Z,130
2016-06-04T09:33:00.542Z,130
2016-06-04T09:34:00.562Z,130
2016-06-04T09:35:19.786Z,130
2016-06-04T09:36:00.614Z,135
2016-06-04T09:37:00.584Z,145
2016-06-04T09:38:00.572Z,160
2016-06-04T09:39:00.434Z,175
2016-06-04T09:40:00.608Z,185
2016-06-04T09:41:00.611Z,195
2016-06-04T09:42:00.630Z,210
2016-06-04T09:43:00.633Z,225
2016-06-04T09:44:01.150Z,240
2016-06-04T09:45:00.653Z,255
2016-06-04T09:46:00.608Z,280
2016-06-04T09:47:00.643Z,285
2016-06-04T09:48:00.661Z,295
2016-06-04T09:49:00.663Z,315
2016-06-04T09:50:13.419Z,305
2016-06-04T09:51:00.654Z,300
2016-06-04T09:52:00.688Z,280
2016-06-04T09:53:00.659Z,265
2016-06-04T09:54:00.536Z,245
2016-06-04T09:55:19.885Z,230
2016-06-04T09:56:00.698Z,230
2016-06-04T09:57:00.717Z,240
2016-06-04T09:58:01.859Z,235
2016-06-04T09:59:00.535Z,205
2016-06-04T10:00:00.709Z,175
2016-06-04T10:01:00.774Z,170
2016-06-04T10:02:00.558Z,175
2016-06-04T10:03:07.048Z,185
2016-06-04T10:04:00.736Z,205
2016-06-04T10:05:00.770Z,220
2016-06-04T10:06:00.633Z,225
2016-06-04T10:07:00.789Z,235
2016-06-04T10:08:00.819Z,245
2016-06-04T10:09:00.850Z,245
2016-06-04T10:10:13.664Z,240
2016-06-04T10:11:00.930Z,240
2016-06-04T10:12:00.927Z,240
2016-06-04T10:13:01.503Z,240
2016-06-04T10:14:00.859Z,235
2016-06-04T10:15:00.996Z,240
2016-06-04T10:16:01.005Z,235
2016-06-04T10:17:00.855Z,235
2016-06-04T10:18:13.772Z,240
2016-06-04T10:19:01.022Z,250
2016-06-04T10:20:00.623Z,260
2016-06-04T10:21:00.753Z,265
2016-06-04T10:22:01.038Z,275
2016-06-04T10:23:01.074Z,285
2016-06-04T10:24:00.609Z,295
2016-06-04T10:25:07.367Z,310
2016-06-04T10:26:01.664Z,315
2016-06-04T10:27:01.120Z,320
2016-06-04T10:28:00.905Z,330
2016-06-04T10:29:03.235Z,340
2016-06-04T10:30:01.130Z,345
2016-06-04T10:31:04.741Z,355
2016-06-04T10:32:07.372Z,360
2016-06-04T10:33:01.107Z,360
2016-06-04T10:34:01.109Z,360
2016-06-04T10:35:01.127Z,360
2016-06-04T10:36:07.398Z,360
2016-06-04T10:37:02.570Z,355
2016-06-04T10:38:01.135Z,350
2016-06-04T10:39:01.170Z,345
2016-06-04T10:40:01.157Z,335
2016-06-04T10:41:13.912Z,320
2016-06-04T10:42:01.193Z,310
2016-06-04T10:43:01.196Z,305
2016-06-04T10:44:14.607Z,300
2016-06-04T10:45:01.186Z,295
2016-06-04T10:46:01.173Z,290
2016-06-04T10:47:01.191Z,290
2016-06-04T10:48:01.179Z,285
2016-06-04T10:49:01.212Z,285
2016-06-04T10:50:13.967Z,285
2016-06-04T10:51:01.061Z,285
2016-06-04T10:52:01.205Z,290
2016-06-04T10:53:01.208Z,290
2016-06-04T10:54:13.994Z,290
2016-06-04T10:55:01.244Z,295
2016-06-04T10:56:01.293Z,295
2016-06-04T10:57:02.264Z,300
2016-06-04T10:58:01.189Z,305
2016-06-04T10:59:01.254Z,305
2016-06-04T11:00:01.289Z,305
2016-06-04T11:01:01.291Z,310
2016-06-04T11:02:01.247Z,310
2016-06-04T11:03:01.281Z,315
2016-06-04T11:04:01.269Z,315
2016-06-04T11:05:01.286Z,320
2016-06-04T11:06:20.557Z,320
2016-06-04T11:07:01.276Z,320
2016-06-04T11:08:01.373Z,320
2016-06-04T11:09:01.141Z,310
2016-06-04T11:10:01.315Z,305
2016-06-04T11:11:14.054Z,300
2016-06-04T11:12:01.320Z,300
2016-06-04T11:13:01.215Z,300
2016-06-04T11:14:04.451Z,300
2016-06-04T11:15:01.376Z,295
2016-06-04T11:16:01.379Z,295
2016-06-04T11:17:13.931Z,295
2016-06-04T11:18:01.337Z,300
2016-06-04T11:19:01.371Z,300
2016-06-04T11:20:01.359Z,300
2016-06-04T11:21:01.345Z,300
2016-06-04T11:22:01.426Z,300
2016-06-04T11:23:01.459Z,300
2016-06-04T11:24:01.478Z,305
2016-06-04T11:25:01.465Z,310
2016-06-04T11:26:14.205Z,315
2016-06-04T11:27:01.658Z,320
2016-06-04T11:28:01.177Z,320
2016-06-04T11:29:01.492Z,320
2016-06-04T11:30:01.526Z,325
2016-06-04T11:31:01.419Z,330
2016-06-04T11:32:01.500Z,330
2016-06-04T11:33:20.724Z,335
2016-06-04T11:34:01.708Z,340
2016-06-04T11:35:01.446Z,340
2016-06-04T11:36:01.464Z,345
2016-06-04T11:37:01.513Z,350
2016-06-04T11:38:01.437Z,355
2016-06-04T11:39:01.472Z,355
2016-06-04T11:40:14.196Z,355
2016-06-04T11:41:01.587Z,360
2016-06-04T11:42:02.792Z,365
2016-06-04T11:43:01.545Z,365
2016-06-04T11:44:01.515Z,375
2016-06-04T11:45:01.551Z,380
2016-06-04T11:46:14.242Z,380
2016-06-04T11:47:01.492Z,380
2016-06-04T11:48:01.543Z,385
2016-06-04T11:49:01.374Z,380
2016-06-04T11:50:01.532Z,380
2016-06-04T11:51:01.739Z,380
2016-06-04T11:52:01.617Z,385
2016-06-04T11:53:01.556Z,380
2016-06-04T11:54:01.418Z,390
2016-06-04T11:55:01.562Z,385
2016-06-04T11:56:01.580Z,385
2016-06-04T11:57:01.566Z,385
2016-06-04T11:58:07.851Z,385
2016-06-04T11:59:01.588Z,380
2016-06-04T12:00:01.606Z,380
2016-06-04T12:01:20.783Z,375
2016-06-04T12:02:01.564Z,370
2016-06-04T12:03:01.630Z,370
2016-06-04T12:04:01.616Z,380
2016-06-04T12:05:14.341Z,380
2016-06-04T12:06:01.622Z,380
2016-06-04T12:07:01.610Z,370
2016-06-04T12:08:01.612Z,360
2016-06-04T12:09:01.631Z,350
2016-06-04T12:10:14.371Z,355
2016-06-04T12:11:02.949Z,350
2016-06-04T12:12:02.232Z,350
2016-06-04T12:13:01.673Z,350
2016-06-04T12:14:01.676Z,340
2016-06-04T12:15:14.415Z,340
2016-06-04T12:16:01.524Z,340
2016-06-04T12:17:20.936Z,335
2016-06-04T12:18:14.423Z,325
2016-06-04T12:19:01.720Z,330
2016-06-04T12:20:01.692Z,330
2016-06-04T12:21:14.447Z,315
2016-06-04T12:22:01.743Z,305
2016-06-04T12:23:01.746Z,305
2016-06-04T12:24:01.733Z,320
2016-06-04T12:25:01.751Z,325
2016-06-04T12:26:01.786Z,330
2016-06-04T12:27:01.741Z,325
2016-06-04T12:28:05.526Z,315
2016-06-04T12:29:01.966Z,320
2016-06-04T12:30:01.781Z,320
2016-06-04T12:31:01.767Z,315
2016-06-04T12:32:01.770Z,320
2016-06-04T12:33:01.805Z,315
2016-06-04T12:34:01.791Z,310
2016-06-04T12:35:01.810Z,305
2016-06-04T12:36:01.797Z,300
2016-06-04T12:37:01.909Z,300
2016-06-04T12:38:01.849Z,310
2016-06-04T12:39:01.836Z,310
2016-06-04T12:40:01.699Z,310
2016-06-04T12:41:01.841Z,315
2016-06-04T12:42:01.876Z,320
2016-06-04T12:43:02.269Z,340
2016-06-04T12:44:01.896Z,340
2016-06-04T12:45:01.868Z,355
2016-06-04T12:46:01.901Z,360
2016-06-04T12:47:01.874Z,365
2016-06-04T12:48:01.954Z,365
2016-06-04T12:49:01.895Z,360
2016-06-04T12:50:01.897Z,360
2016-06-04T12:51:01.759Z,365
2016-06-04T12:52:01.934Z,360
2016-06-04T12:53:03.358Z,360
2016-06-04T12:54:01.939Z,350
2016-06-04T12:55:01.942Z,350
2016-06-04T12:56:01.789Z,350
2016-06-04T12:57:01.994Z,335
2016-06-04T12:58:01.950Z,310
2016-06-04T12:59:01.968Z,300
2016-06-04T13:00:01.939Z,280
2016-06-04T13:01:01.973Z,255
2016-06-04T13:02:01.961Z,250
2016-06-04T13:03:01.979Z,250
2016-06-04T13:04:01.981Z,255
2016-06-04T13:05:01.984Z,250
2016-06-04T13:06:01.987Z,250
2016-06-04T13:07:02.005Z,255
2016-06-04T13:08:01.992Z,260
2016-06-04T13:09:01.994Z,270
2016-06-04T13:10:02.513Z,285
2016-06-04T13:11:02.219Z,290
2016-06-04T13:12:02.019Z,305
2016-06-04T13:13:02.366Z,320
2016-06-04T13:14:01.758Z,350
2016-06-04T13:15:02.057Z,365
2016-06-04T13:16:02.046Z,375
2016-06-04T13:17:02.063Z,385
2016-06-04T13:18:02.082Z,390
2016-06-04T13:19:02.085Z,380
2016-06-04T13:20:02.087Z,375
2016-06-04T13:21:02.198Z,370
2016-06-04T13:22:02.296Z,370
2016-06-04T13:23:02.126Z,360
2016-06-04T13:24:02.129Z,360
2016-06-04T13:25:02.209Z,355
2016-06-04T13:26:02.151Z,355
2016-06-04T13:27:03.200Z,345
2016-06-04T13:28:02.187Z,340
2016-06-04T13:29:02.142Z,340
2016-06-04T13:30:02.364Z,330
2016-06-04T13:31:02.351Z,325
2016-06-04T13:32:02.370Z,315
2016-06-04T13:33:02.325Z,315
2016-06-04T13:34:02.281Z,295
2016-06-04T13:35:02.347Z,285
2016-06-04T13:36:02.333Z,265
2016-06-04T13:37:02.367Z,245
2016-06-04T13:38:02.464Z,230
2016-06-04T13:39:02.342Z,230
2016-06-04T13:40:02.328Z,230
2016-06-04T13:41:02.393Z,235
2016-06-04T13:42:02.350Z,240
2016-06-04T13:43:02.415Z,240
2016-06-04T13:44:04.183Z,235
2016-06-04T13:45:02.264Z,230
2016-06-04T13:46:02.454Z,220
2016-06-04T13:47:02.363Z,210
2016-06-04T13:48:02.694Z,200
2016-06-04T13:49:02.556Z,185
2016-06-04T13:50:02.512Z,180
2016-06-04T13:51:02.343Z,175
2016-06-04T13:52:02.470Z,170
2016-06-04T13:53:02.442Z,160
2016-06-04T13:54:02.616Z,155
2016-06-04T13:55:02.337Z,150
2016-06-04T13:56:02.637Z,145
2016-06-04T13:57:02.499Z,145
2016-06-04T13:58:02.549Z,140
2016-06-04T13:59:02.911Z,140
2016-06-04T14:00:02.414Z,135
2016-06-04T14:01:02.431Z,135
2016-06-04T14:02:02.403Z,135
2016-06-04T14:03:02.453Z,135
2016-06-04T14:04:02.472Z,135
2016-06-04T14:05:02.536Z,135
2016-06-04T14:06:02.461Z,140